Time;durP1;ratioP1;P1;durP2;ratioP2;P2;SDS_P1;SDS_P2;PMS_P1;PMS_P2;Temp;Humidity;BMP_temperature;BMP_pressure;BME280_temperature;BME280_humidity;BME280_pressure;Samples;Min_cycle;Max_cycle;Signal;HPM_P1;HPM_P2
2021/01/05 00:01:45;;;;;;;6.22;2.60;;;25.90;99.90;;;;;;5039588;28;20074;-81
2021/01/05 00:04:12;;;;;;;6.60;2.10;;;25.90;99.90;;;;;;5051121;28;20041;-80
2021/01/05 00:06:39;;;;;;;5.05;1.95;;;26.00;99.90;;;;;;5046924;28;20049;-78
2021/01/05 00:09:07;;;;;;;4.40;2.38;;;25.70;99.90;;;;;;5045014;28;20036;-81
2021/01/05 00:11:34;;;;;;;6.18;2.25;;;25.80;99.90;;;;;;5031949;28;20441;-80
2021/01/05 00:14:01;;;;;;;4.72;2.10;;;25.80;99.90;;;;;;5035564;28;20024;-81
2021/01/05 00:16:29;;;;;;;3.08;1.77;;;26.10;99.90;;;;;;5051111;28;20627;-82
2021/01/05 00:18:57;;;;;;;4.20;1.65;;;26.50;99.90;;;;;;5042873;28;20440;-83
2021/01/05 00:21:25;;;;;;;8.95;2.60;;;26.30;99.90;;;;;;5034544;28;20025;-82
2021/01/05 00:23:53;;;;;;;4.97;2.20;;;25.60;99.90;;;;;;5043123;28;20021;-80
2021/01/05 00:26:20;;;;;;;3.67;1.77;;;25.40;99.90;;;;;;5051340;28;20033;-81
2021/01/05 00:28:48;;;;;;;4.10;2.13;;;25.30;99.90;;;;;;5051489;28;20017;-81
2021/01/05 00:31:15;;;;;;;6.22;1.80;;;25.40;99.90;;;;;;5055374;28;20036;-81
2021/01/05 00:33:42;;;;;;;5.63;2.10;;;25.90;99.90;;;;;;5054365;28;20056;-79
2021/01/05 00:36:10;;;;;;;3.63;2.30;;;25.70;99.90;;;;;;5050974;28;20025;-80
2021/01/05 00:38:37;;;;;;;5.00;1.98;;;25.80;99.90;;;;;;5038827;28;20033;-78
2021/01/05 00:41:05;;;;;;;6.88;2.78;;;26.00;99.90;;;;;;5073593;22;20099;-82
2021/01/05 00:43:32;;;;;;;5.93;1.83;;;26.20;99.90;;;;;;5082007;22;20063;-82
2021/01/05 00:45:59;;;;;;;4.28;2.00;;;26.40;99.90;;;;;;5082075;22;20048;-82
2021/01/05 00:48:26;;;;;;;3.88;1.70;;;26.00;99.90;;;;;;5083661;22;20029;31
2021/01/05 00:50:53;;;;;;;2.28;1.45;;;25.80;99.90;;;;;;5013658;28;20085;-83
2021/01/05 00:53:20;;;;;;;4.50;1.65;;;25.90;99.90;;;;;;5015375;28;20021;-85
2021/01/05 00:55:48;;;;;;;4.20;1.60;;;26.40;99.90;;;;;;4997693;28;20034;-80
2021/01/05 00:58:15;;;;;;;4.40;1.88;;;26.60;99.90;;;;;;5054830;22;20070;-79
2021/01/05 01:00:42;;;;;;;6.15;2.08;;;26.80;99.90;;;;;;5069523;28;20028;-81
2021/01/05 01:03:10;;;;;;;5.50;2.17;;;27.10;99.90;;;;;;5069743;28;20028;-82
2021/01/05 01:05:37;;;;;;;3.08;1.88;;;27.40;99.90;;;;;;5070956;28;20469;-83
2021/01/05 01:08:04;;;;;;;4.53;1.98;;;27.60;99.90;;;;;;5071652;28;20035;-83
2021/01/05 01:10:32;;;;;;;7.15;1.73;;;28.10;99.90;;;;;;5074648;28;20024;-82
2021/01/05 01:12:59;;;;;;;4.45;1.80;;;28.10;99.90;;;;;;5069366;28;20021;-83
2021/01/05 01:15:26;;;;;;;4.78;1.85;;;28.00;99.90;;;;;;5064728;22;20041;-83
2021/01/05 01:17:53;;;;;;;4.10;1.70;;;28.10;99.90;;;;;;5070864;28;20107;-82
2021/01/05 01:20:21;;;;;;;5.05;1.70;;;28.30;99.90;;;;;;5069869;28;20021;-83
2021/01/05 01:22:48;;;;;;;3.92;1.73;;;28.00;99.90;;;;;;5058430;28;20033;-83
2021/01/05 01:25:17;;;;;;;3.95;1.58;;;28.20;99.90;;;;;;5053695;28;20024;-81
2021/01/05 01:27:45;;;;;;;3.15;1.55;;;28.30;99.90;;;;;;5033882;28;20439;-85
2021/01/05 01:30:13;;;;;;;2.97;1.65;;;28.50;99.90;;;;;;5054277;28;20029;-82
2021/01/05 01:32:40;;;;;;;3.75;1.63;;;28.70;99.90;;;;;;5048362;28;20140;-84
2021/01/05 01:35:09;;;;;;;2.83;1.33;;;28.90;99.90;;;;;;5051504;28;20059;-82
2021/01/05 01:37:36;;;;;;;3.75;1.58;;;28.60;99.90;;;;;;5052359;28;20155;-83
2021/01/05 01:40:06;;;;;;;3.22;1.77;;;28.80;99.90;;;;;;5053130;28;20028;-83
2021/01/05 01:42:33;;;;;;;2.42;1.23;;;28.90;99.90;;;;;;5050034;28;20081;-81
2021/01/05 01:45:00;;;;;;;3.38;1.60;;;29.20;99.90;;;;;;5052170;28;20494;-84
2021/01/05 01:47:39;;;;;;;4.30;1.70;;;29.60;99.90;;;;;;5068769;22;20017;-83
2021/01/05 01:50:08;;;;;;;5.43;1.42;;;29.80;99.90;;;;;;5032499;28;20033;-84
2021/01/05 01:53:07;;;;;;;2.90;1.67;;;29.60;99.90;;;;;;5027950;28;20032;-81
2021/01/05 01:55:52;;;;;;;8.05;2.83;;;29.20;99.90;;;;;;5033601;28;20017;-85
2021/01/05 01:58:22;;;;;;;7.10;2.60;;;29.70;99.90;;;;;;5030864;28;20079;-85
2021/01/05 02:01:31;;;;;;;5.90;2.45;;;30.00;99.90;;;;;;5032837;28;20105;-86
2021/01/05 02:04:19;;;;;;;6.65;2.60;;;29.50;99.90;;;;;;5004050;28;20502;-85
2021/01/05 02:06:47;;;;;;;8.25;3.05;;;28.60;99.90;;;;;;5047770;28;20022;-86
2021/01/05 02:09:48;;;;;;;7.97;3.03;;;27.70;99.90;;;;;;5033601;28;20549;-86
2021/01/05 02:12:28;;;;;;;8.85;3.33;;;27.70;99.90;;;;;;5032378;28;20064;-87
2021/01/05 02:15:09;;;;;;;7.45;3.78;;;27.90;99.90;;;;;;5033773;28;20084;-87
2021/01/05 02:18:12;;;;;;;11.20;3.75;;;28.60;99.90;;;;;;5038318;28;20532;-87
2021/01/05 02:20:48;;;;;;;11.97;3.83;;;28.50;99.90;;;;;;5051440;28;20024;-84
2021/01/05 02:23:24;;;;;;;7.88;2.88;;;28.70;99.90;;;;;;5032088;28;20017;-88
2021/01/05 02:26:02;;;;;;;8.32;3.08;;;28.90;99.90;;;;;;5026396;28;20021;-78
2021/01/05 02:28:53;;;;;;;5.00;3.10;;;28.00;99.90;;;;;;5023380;28;20032;-80
2021/01/05 02:31:32;;;;;;;7.22;3.92;;;27.40;99.90;;;;;;5028959;28;20072;-78
2021/01/05 02:34:04;;;;;;;9.18;3.60;;;26.80;99.90;;;;;;5029827;28;20060;-79
2021/01/05 02:36:49;;;;;;;7.55;3.10;;;27.40;99.90;;;;;;5031315;28;20563;-80
2021/01/05 02:39:31;;;;;;;9.68;2.95;;;28.60;99.90;;;;;;5031423;28;20041;-81
2021/01/05 02:42:14;;;;;;;12.20;3.17;;;28.90;99.90;;;;;;5025437;28;20071;-81
2021/01/05 02:44:54;;;;;;;7.72;3.17;;;27.90;99.90;;;;;;5025631;28;20121;-81
2021/01/05 02:47:32;;;;;;;10.43;4.32;;;26.90;99.90;;;;;;5031327;28;20085;-80
2021/01/05 02:52:41;;;;;;;7.88;3.80;;;27.20;99.90;;;;;;5061256;22;20051;-81
2021/01/05 02:55:44;;;;;;;8.98;3.67;;;26.50;99.90;;;;;;5030402;28;20037;-83
2021/01/05 02:58:45;;;;;;;9.93;3.67;;;26.30;99.90;;;;;;5067160;22;20053;-82
2021/01/05 03:01:30;;;;;;;8.57;3.45;;;26.80;99.90;;;;;;5051053;28;20028;-82
2021/01/05 03:03:58;;;;;;;7.25;3.33;;;27.40;99.90;;;;;;5038843;28;20021;-82
2021/01/05 03:06:30;;;;;;;8.23;3.40;;;26.80;99.90;;;;;;5053020;23;20040;-82
2021/01/05 03:09:12;;;;;;;8.23;3.85;;;26.20;99.90;;;;;;5055716;28;20033;-82
2021/01/05 03:11:58;;;;;;;7.65;3.90;;;25.80;99.90;;;;;;5053177;28;20037;-81
2021/01/05 03:15:04;;;;;;;8.45;3.63;;;26.20;99.90;;;;;;5071838;28;20095;-82
2021/01/05 03:17:39;;;;;;;10.85;3.80;;;26.10;99.90;;;;;;5068016;28;20038;-82
2021/01/05 03:20:24;;;;;;;7.50;3.92;;;26.10;99.90;;;;;;5036642;28;20034;-81
2021/01/05 03:23:03;;;;;;;8.77;3.63;;;25.80;99.90;;;;;;5056465;22;20060;-82
2021/01/05 03:25:35;;;;;;;7.68;3.80;;;25.50;99.90;;;;;;5043125;28;20072;-84
2021/01/05 03:28:04;;;;;;;8.93;4.03;;;26.00;99.90;;;;;;5046815;28;20128;-80
2021/01/05 03:30:46;;;;;;;9.10;3.88;;;26.40;99.90;;;;;;5007804;28;20402;-79
2021/01/05 03:33:14;;;;;;;9.32;3.88;;;26.20;99.90;;;;;;5027735;28;20470;-80
2021/01/05 03:35:41;;;;;;;10.25;3.58;;;25.60;99.90;;;;;;5029264;28;20029;-78
2021/01/05 03:38:09;;;;;;;6.28;4.38;;;25.70;99.90;;;;;;5029520;28;20025;-79
2021/01/05 03:40:36;;;;;;;20.13;4.32;;;25.80;99.90;;;;;;5030990;28;20033;-80
2021/01/05 03:43:03;;;;;;;7.68;3.85;;;26.00;99.90;;;;;;5025548;28;20113;-81
2021/01/05 03:45:32;;;;;;;11.35;3.22;;;26.40;99.90;;;;;;5026199;28;20017;-75
2021/01/05 03:48:00;;;;;;;6.63;3.35;;;26.90;99.90;;;;;;5029290;28;20032;-81
2021/01/05 03:50:27;;;;;;;6.57;2.78;;;26.60;99.90;;;;;;5031788;28;20116;-80
2021/01/05 03:52:54;;;;;;;7.97;3.33;;;26.50;99.90;;;;;;5030113;28;20044;-81
2021/01/05 03:55:22;;;;;;;5.03;2.65;;;26.30;99.90;;;;;;5054522;22;20048;-80
2021/01/05 03:57:49;;;;;;;8.13;3.50;;;26.00;99.90;;;;;;5048883;28;20036;-81
2021/01/05 04:00:26;;;;;;;8.75;3.40;;;26.00;99.90;;;;;;5027150;28;20033;-82
2021/01/05 04:02:55;;;;;;;7.03;3.15;;;26.00;99.90;;;;;;5028143;28;20049;-80
2021/01/05 04:05:23;;;;;;;8.35;3.45;;;26.30;99.90;;;;;;5011860;28;20100;-80
2021/01/05 04:07:51;;;;;;;5.68;3.28;;;26.30;99.90;;;;;;5027030;28;20409;-80
2021/01/05 04:10:19;;;;;;;7.05;4.00;;;26.50;99.90;;;;;;5028784;28;20092;-80
2021/01/05 04:12:46;;;;;;;6.88;3.08;;;26.50;99.90;;;;;;5021235;28;20112;-81
2021/01/05 04:15:23;;;;;;;8.07;3.22;;;26.20;99.90;;;;;;5020752;28;20509;-81
2021/01/05 04:17:52;;;;;;;6.95;2.75;;;26.50;99.90;;;;;;5028073;28;20037;-78
2021/01/05 04:20:20;;;;;;;6.25;2.80;;;26.70;99.90;;;;;;5029910;28;20613;-81
2021/01/05 04:22:48;;;;;;;6.78;2.80;;;26.60;99.90;;;;;;5024390;28;20037;-79
2021/01/05 04:25:17;;;;;;;7.03;2.35;;;26.70;99.90;;;;;;5031034;28;20037;-78
2021/01/05 04:27:46;;;;;;;5.38;2.55;;;26.90;99.90;;;;;;5028798;28;20030;-79
2021/01/05 04:30:34;;;;;;;5.97;2.95;;;26.50;99.90;;;;;;5022234;28;20033;-78
2021/01/05 04:33:07;;;;;;;3.90;2.63;;;26.30;99.90;;;;;;5027113;28;20534;-78
2021/01/05 04:35:35;;;;;;;5.25;2.53;;;26.00;99.90;;;;;;5029210;28;20037;-78
2021/01/05 04:38:03;;;;;;;5.40;2.60;;;25.70;99.90;;;;;;5027467;28;20036;-76
2021/01/05 04:40:40;;;;;;;6.47;3.60;;;25.70;99.90;;;;;;5010073;28;20030;-77
2021/01/05 04:43:17;;;;;;;8.30;3.67;;;25.90;99.90;;;;;;5029667;28;20477;-78
2021/01/05 04:46:15;;;;;;;8.23;2.78;;;25.80;99.90;;;;;;5031283;28;20044;-81
2021/01/05 04:49:02;;;;;;;5.75;2.67;;;25.50;99.90;;;;;;5012848;28;20033;-80
2021/01/05 04:51:37;;;;;;;7.40;3.20;;;25.30;99.90;;;;;;5029139;28;20045;-80
2021/01/05 04:54:22;;;;;;;6.07;2.90;;;25.20;99.90;;;;;;5030721;28;20033;-80
2021/01/05 04:57:20;;;;;;;6.40;3.67;;;25.70;99.90;;;;;;5073060;22;20132;-80
2021/01/05 04:59:50;;;;;;;6.30;2.80;;;26.10;99.90;;;;;;5054628;22;20045;-80
2021/01/05 05:02:29;;;;;;;7.40;3.42;;;25.80;99.90;;;;;;5050458;28;20536;-80
2021/01/05 05:05:05;;;;;;;8.85;3.47;;;25.20;99.90;;;;;;5054049;23;20053;-81
2021/01/05 05:07:44;;;;;;;6.53;3.17;;;25.00;99.90;;;;;;5040836;28;20108;-81
2021/01/05 05:10:44;;;;;;;9.65;3.15;;;25.10;99.90;;;;;;5027517;28;20036;-79
2021/01/05 05:13:54;;;;;;;6.07;3.60;;;25.00;99.90;;;;;;5052996;22;20549;-77
2021/01/05 05:16:51;;;;;;;8.98;3.83;;;25.10;99.90;;;;;;5065026;28;20032;-73
2021/01/05 05:19:57;;;;;;;9.38;3.88;;;25.20;99.90;;;;;;5073339;28;20035;-78
2021/01/05 05:22:51;;;;;;;8.15;3.53;;;25.20;99.90;;;;;;5030893;28;20065;-79
2021/01/05 05:25:33;;;;;;;8.63;3.53;;;25.30;99.90;;;;;;5033569;28;20060;-79
2021/01/05 05:28:12;;;;;;;5.25;2.70;;;25.20;99.90;;;;;;5049623;28;20490;-78
2021/01/05 05:30:42;;;;;;;5.18;2.83;;;25.20;99.90;;;;;;5065892;23;20058;-79
2021/01/05 05:33:22;;;;;;;8.60;3.25;;;25.30;99.90;;;;;;5071062;28;20021;-78
2021/01/05 05:36:01;;;;;;;7.22;3.30;;;25.30;99.90;;;;;;5072119;28;20607;-77
2021/01/05 05:38:46;;;;;;;7.43;3.50;;;25.40;99.90;;;;;;5066860;28;20049;-77
2021/01/05 05:41:22;;;;;;;6.28;3.03;;;25.50;99.90;;;;;;5054353;28;20023;-78
2021/01/05 05:44:14;;;;;;;8.57;3.67;;;25.60;99.90;;;;;;5053048;28;20013;-79
2021/01/05 05:46:54;;;;;;;5.82;3.13;;;25.60;99.90;;;;;;5052204;28;20429;-76
2021/01/05 05:49:49;;;;;;;9.18;3.47;;;25.40;99.90;;;;;;5054153;28;20005;-76
2021/01/05 05:52:22;;;;;;;;;;;25.40;99.90;;;;;;5052384;28;20095;-80
2021/01/05 05:54:50;;;;;;;6.03;3.33;;;25.30;99.90;;;;;;5053544;28;19909;-79
2021/01/05 05:57:31;;;;;;;7.22;3.40;;;25.40;99.90;;;;;;5052619;28;20032;-78
2021/01/05 06:00:15;;;;;;;7.10;2.65;;;25.50;99.90;;;;;;5053865;28;20041;-77
2021/01/05 06:02:42;;;;;;;4.65;2.25;;;25.50;99.90;;;;;;5068463;22;20161;-78
2021/01/05 06:05:33;;;;;;;6.57;2.08;;;25.60;99.90;;;;;;5050871;28;20039;-76
2021/01/05 06:08:02;;;;;;;6.47;2.35;;;25.60;99.90;;;;;;5071707;28;20035;-75
2021/01/05 06:10:30;;;;;;;3.63;2.03;;;25.70;99.90;;;;;;5070389;28;20542;-76
2021/01/05 06:12:57;;;;;;;6.28;2.33;;;25.70;99.90;;;;;;5049845;28;20033;-75
2021/01/05 06:15:25;;;;;;;7.38;3.15;;;25.70;99.90;;;;;;5061152;28;20030;-76
2021/01/05 06:17:52;;;;;;;6.05;2.13;;;25.70;99.90;;;;;;5057424;28;20079;-75
2021/01/05 06:20:20;;;;;;;5.93;2.33;;;25.70;99.90;;;;;;5053574;28;20020;-75
2021/01/05 06:22:47;;;;;;;7.85;3.00;;;25.80;99.90;;;;;;5060973;28;20028;-78
2021/01/05 06:25:15;;;;;;;5.53;2.85;;;25.80;99.90;;;;;;5072735;28;20111;-78
2021/01/05 06:27:43;;;;;;;9.07;3.10;;;25.80;99.90;;;;;;5055636;28;20091;-78
2021/01/05 06:30:11;;;;;;;5.28;2.08;;;25.90;99.90;;;;;;5035364;28;20433;-79
2021/01/05 06:32:38;;;;;;;4.57;2.22;;;26.00;99.90;;;;;;5043072;28;20104;-78
2021/01/05 06:35:07;;;;;;;3.80;1.95;;;25.70;99.90;;;;;;5053120;28;20450;-80
2021/01/05 06:37:37;;;;;;;3.33;2.00;;;25.60;99.90;;;;;;5051896;28;20064;-78
2021/01/05 06:40:06;;;;;;;8.52;2.78;;;25.80;99.90;;;;;;5051629;28;20466;-78
2021/01/05 06:42:33;;;;;;;8.27;2.78;;;25.70;99.90;;;;;;5049724;28;20031;-78
2021/01/05 06:45:01;;;;;;;5.63;1.73;;;25.70;99.90;;;;;;5044857;28;20032;-78
2021/01/05 06:47:28;;;;;;;7.18;2.55;;;25.60;99.90;;;;;;5045391;28;20029;-77
2021/01/05 06:49:55;;;;;;;6.28;2.28;;;25.30;99.90;;;;;;5046555;28;20509;-78
2021/01/05 06:52:23;;;;;;;8.13;2.50;;;25.20;99.90;;;;;;5046807;28;20035;-78
2021/01/05 06:54:51;;;;;;;8.15;2.83;;;25.00;99.90;;;;;;5030511;28;20025;-79
2021/01/05 06:57:19;;;;;;;10.35;2.50;;;24.90;99.90;;;;;;5045615;28;20371;-80
2021/01/05 06:59:46;;;;;;;6.20;2.80;;;24.80;99.90;;;;;;5050668;28;20029;-80
2021/01/05 07:02:15;;;;;;;8.90;3.78;;;24.70;99.90;;;;;;5050779;28;20520;-80
2021/01/05 07:04:43;;;;;;;7.43;4.20;;;24.60;99.90;;;;;;5083281;22;20053;-80
2021/01/05 07:07:10;;;;;;;7.18;4.10;;;24.40;99.90;;;;;;5079510;22;20048;-79
2021/01/05 07:09:37;;;;;;;7.95;4.25;;;24.20;99.90;;;;;;5069367;28;20021;-79
2021/01/05 07:12:05;;;;;;;7.50;4.28;;;24.20;99.90;;;;;;5073653;22;20048;-80
2021/01/05 07:14:32;;;;;;;9.98;3.72;;;24.20;99.90;;;;;;5054489;28;20505;-79
2021/01/05 07:16:59;;;;;;;5.55;2.70;;;24.20;99.90;;;;;;5047821;28;20036;-79
2021/01/05 07:19:27;;;;;;;7.55;3.10;;;24.20;99.90;;;;;;5058919;28;20070;-79
2021/01/05 07:21:54;;;;;;;7.82;3.47;;;24.30;99.90;;;;;;5068561;22;20061;-80
2021/01/05 07:24:21;;;;;;;6.30;3.13;;;24.50;99.90;;;;;;5054635;28;20021;-81
2021/01/05 07:26:50;;;;;;;8.38;3.85;;;24.50;99.90;;;;;;5054260;28;20056;-80
2021/01/05 07:29:20;;;;;;;12.23;4.32;;;24.60;99.90;;;;;;5082894;28;20032;-80
2021/01/05 07:31:49;;;;;;;7.05;4.05;;;24.60;99.90;;;;;;5092626;28;20080;-81
2021/01/05 07:34:17;;;;;;;5.88;3.80;;;24.30;99.90;;;;;;5057419;28;20028;-81
2021/01/05 07:36:55;;;;;;;11.32;3.60;;;24.10;99.90;;;;;;5096478;22;20032;-80
2021/01/05 07:39:26;;;;;;;10.30;4.45;;;24.10;99.90;;;;;;5061777;28;20131;-80
2021/01/05 07:42:10;;;;;;;9.73;3.83;;;24.10;99.90;;;;;;5071093;28;20050;-81
2021/01/05 07:44:38;;;;;;;7.22;3.95;;;24.00;99.90;;;;;;5041419;28;20026;-80
2021/01/05 07:47:06;;;;;;;7.20;4.30;;;24.00;99.90;;;;;;5051001;28;20504;-79
2021/01/05 07:49:34;;;;;;;7.82;4.10;;;24.00;99.90;;;;;;5052653;28;20052;-78
2021/01/05 07:52:01;;;;;;;8.55;4.55;;;24.00;99.90;;;;;;5044564;28;20067;-79
2021/01/05 07:54:29;;;;;;;11.57;3.50;;;23.90;99.90;;;;;;5049439;28;20017;-79
2021/01/05 07:56:56;;;;;;;7.68;3.25;;;23.80;99.90;;;;;;5051346;28;20021;-78
2021/01/05 07:59:23;;;;;;;8.30;3.65;;;23.80;99.90;;;;;;5060888;28;20021;-78
2021/01/05 08:01:50;;;;;;;8.55;3.63;;;23.70;99.90;;;;;;5071526;28;20027;-78
2021/01/05 08:04:18;;;;;;;6.18;3.03;;;23.60;99.90;;;;;;5055189;28;20025;-78
2021/01/05 08:06:45;;;;;;;6.88;3.05;;;23.60;99.90;;;;;;5051507;28;20031;-78
2021/01/05 08:09:12;;;;;;;5.85;2.67;;;23.60;99.90;;;;;;5056328;28;20046;-80
2021/01/05 08:11:40;;;;;;;9.25;3.17;;;23.50;99.90;;;;;;5063708;22;20056;-82
2021/01/05 08:14:07;;;;;;;4.90;2.97;;;23.60;99.90;;;;;;5071783;28;20431;-81
2021/01/05 08:16:34;;;;;;;5.40;2.90;;;23.60;99.90;;;;;;5071590;28;20027;-82
2021/01/05 08:19:02;;;;;;;6.53;2.88;;;23.70;99.90;;;;;;5044056;28;20078;-83
2021/01/05 08:21:29;;;;;;;4.50;2.50;;;23.60;99.90;;;;;;5062528;28;20017;-82
2021/01/05 08:23:56;;;;;;;5.93;2.60;;;23.60;99.90;;;;;;5053569;28;20056;-81
2021/01/05 08:26:23;;;;;;;4.60;2.70;;;23.60;99.90;;;;;;5051158;28;20025;-82
2021/01/05 08:28:51;;;;;;;8.63;3.20;;;23.50;99.90;;;;;;5051673;28;20036;-83
2021/01/05 08:31:18;;;;;;;7.78;2.80;;;23.50;99.90;;;;;;5051219;28;20174;-83
2021/01/05 08:33:45;;;;;;;6.30;3.17;;;23.50;99.90;;;;;;5051483;28;20021;-83
2021/01/05 08:36:13;;;;;;;4.90;2.75;;;23.50;99.90;;;;;;5050327;28;20039;-83
2021/01/05 08:38:40;;;;;;;6.50;3.05;;;23.50;99.90;;;;;;5053723;28;20025;-83
2021/01/05 08:41:07;;;;;;;6.93;3.72;;;23.50;99.90;;;;;;5051223;28;20044;-82
2021/01/05 08:43:34;;;;;;;6.05;3.58;;;23.50;99.90;;;;;;5050908;28;20025;-82
2021/01/05 08:46:02;;;;;;;7.13;3.28;;;23.40;99.90;;;;;;5050167;28;20029;-83
2021/01/05 08:48:29;;;;;;;6.32;3.63;;;23.40;99.90;;;;;;5054019;28;20020;-82
2021/01/05 08:50:56;;;;;;;7.80;4.28;;;23.50;99.90;;;;;;5054906;28;20049;-84
2021/01/05 08:53:25;;;;;;;7.85;3.83;;;23.50;99.90;;;;;;5055133;28;20020;-84
2021/01/05 08:55:52;;;;;;;12.35;4.90;;;23.40;99.90;;;;;;5055888;28;20025;-85
2021/01/05 08:58:20;;;;;;;7.10;4.35;;;23.40;99.90;;;;;;5054904;28;20028;-84
2021/01/05 09:00:47;;;;;;;11.65;4.88;;;23.30;99.90;;;;;;5054734;28;20040;-84
2021/01/05 09:03:14;;;;;;;8.05;4.95;;;23.20;99.90;;;;;;5055093;28;20025;-85
2021/01/05 09:05:41;;;;;;;9.63;5.55;;;23.10;99.90;;;;;;5072037;28;20027;-85
2021/01/05 09:08:08;;;;;;;14.32;5.53;;;23.10;99.90;;;;;;5074819;28;20037;-85
2021/01/05 09:10:36;;;;;;;11.13;5.60;;;23.00;99.90;;;;;;5058393;28;20053;-85
2021/01/05 09:13:03;;;;;;;13.20;5.45;;;23.00;99.90;;;;;;5077952;22;20481;-85
2021/01/05 09:15:30;;;;;;;7.78;4.65;;;23.00;99.90;;;;;;5066283;22;20045;-86
2021/01/05 09:18:01;;;;;;;11.23;4.90;;;23.00;99.90;;;;;;5051851;28;20025;-86
2021/01/05 09:20:29;;;;;;;12.45;5.63;;;23.00;99.90;;;;;;5072663;22;20065;-86
2021/01/05 09:22:56;;;;;;;10.75;5.53;;;23.00;99.90;;;;;;5075839;28;20032;-85
2021/01/05 09:25:23;;;;;;;10.48;6.25;;;22.90;99.90;;;;;;5073796;28;20024;-86
2021/01/05 09:27:52;;;;;;;8.65;5.47;;;22.90;99.90;;;;;;5061122;22;20065;-85
2021/01/05 09:30:20;;;;;;;7.22;4.40;;;22.90;99.90;;;;;;5055098;28;20025;-85
2021/01/05 09:32:48;;;;;;;8.85;4.93;;;22.90;99.90;;;;;;5035754;28;20031;-88
2021/01/05 09:35:15;;;;;;;9.10;4.75;;;22.90;99.90;;;;;;5053977;28;20490;-89
2021/01/05 09:37:45;;;;;;;12.07;4.88;;;22.90;99.90;;;;;;5049540;28;20044;-90
2021/01/05 09:40:14;;;;;;;11.05;5.28;;;22.80;99.90;;;;;;5052709;28;20039;-86
2021/01/05 09:42:42;;;;;;;8.50;4.93;;;22.90;99.90;;;;;;5033939;28;20037;-87
2021/01/05 09:45:10;;;;;;;9.38;5.15;;;22.90;99.90;;;;;;5045334;22;20619;-88
2021/01/05 09:47:37;;;;;;;10.82;5.15;;;22.90;99.90;;;;;;5027248;28;20029;-87
2021/01/05 09:50:06;;;;;;;7.15;4.32;;;22.80;99.90;;;;;;5051021;28;20031;-87
2021/01/05 09:52:35;;;;;;;9.18;5.40;;;22.80;99.90;;;;;;5051549;28;20523;-87
2021/01/05 09:55:04;;;;;;;8.15;5.65;;;22.90;99.90;;;;;;5051446;28;20036;-88
2021/01/05 09:57:32;;;;;;;11.63;4.80;;;22.90;99.90;;;;;;5051339;28;20552;-87
2021/01/05 09:59:59;;;;;;;8.82;5.90;;;22.90;99.90;;;;;;5050782;28;20089;-87
2021/01/05 10:02:27;;;;;;;9.65;5.93;;;22.90;99.90;;;;;;5051044;28;20024;-87
2021/01/05 10:04:54;;;;;;;9.80;5.70;;;22.90;99.90;;;;;;5054303;28;20033;-87
2021/01/05 10:07:23;;;;;;;9.15;5.25;;;23.00;99.90;;;;;;5054178;28;20159;-87
2021/01/05 10:09:50;;;;;;;11.20;5.82;;;22.90;99.90;;;;;;5053861;28;20071;-87
2021/01/05 10:12:17;;;;;;;10.20;5.95;;;22.90;99.90;;;;;;5051068;28;20053;-87
2021/01/05 10:14:45;;;;;;;8.80;5.38;;;22.90;99.90;;;;;;5053359;28;20492;-87
2021/01/05 10:19:39;;;;;;;10.80;6.13;;;22.80;99.90;;;;;;5023465;22;20054;-85
2021/01/05 10:22:06;;;;;;;10.02;6.35;;;22.80;99.90;;;;;;4988518;28;20034;-85
2021/01/05 10:24:34;;;;;;;13.88;6.38;;;22.80;99.90;;;;;;4987542;28;20641;-85
2021/01/05 10:27:01;;;;;;;13.82;6.32;;;22.70;99.90;;;;;;4988072;28;20022;-85
2021/01/05 10:29:28;;;;;;;13.15;6.03;;;22.70;99.90;;;;;;4987987;28;20506;-85
2021/01/05 10:31:56;;;;;;;11.77;6.85;;;22.70;99.90;;;;;;4986610;28;20539;-85
2021/01/05 10:34:25;;;;;;;16.05;7.13;;;22.60;99.90;;;;;;4987076;28;20022;-85
2021/01/05 10:36:59;;;;;;;11.45;6.68;;;22.60;99.90;;;;;;4988341;28;20047;-85
2021/01/05 10:39:28;;;;;;;11.45;6.20;;;22.60;99.90;;;;;;5007480;28;20128;-86
2021/01/05 10:41:56;;;;;;;14.57;7.20;;;22.50;99.90;;;;;;5007310;28;20494;-86
2021/01/05 10:44:23;;;;;;;14.65;6.82;;;22.60;99.90;;;;;;5006654;28;20152;-86
2021/01/05 10:46:55;;;;;;;14.43;6.97;;;22.50;99.90;;;;;;5006086;28;20124;-86
2021/01/05 10:49:22;;;;;;;14.20;6.03;;;22.50;99.90;;;;;;5008822;28;20137;-81
2021/01/05 10:51:52;;;;;;;9.48;6.03;;;22.50;99.90;;;;;;5018237;28;20099;-86
2021/01/05 10:54:22;;;;;;;11.93;5.78;;;22.50;99.90;;;;;;5029495;28;20037;-85
2021/01/05 10:57:11;;;;;;;12.35;6.10;;;22.50;99.90;;;;;;5009391;28;20395;-83
2021/01/05 10:59:41;;;;;;;16.25;6.80;;;22.50;99.90;;;;;;5020455;28;20020;-84
2021/01/05 11:02:09;;;;;;;12.57;6.85;;;22.50;99.90;;;;;;5023079;28;20080;-84
2021/01/05 11:04:37;;;;;;;8.95;6.53;;;22.50;99.90;;;;;;5021902;28;20056;-82
2021/01/05 11:07:12;;;;;;;19.98;6.70;;;22.50;99.90;;;;;;5007236;28;20045;-83
2021/01/05 11:09:41;;;;;;;9.23;6.40;;;22.50;99.90;;;;;;5030738;28;20501;-83
2021/01/05 11:12:11;;;;;;;12.80;6.32;;;22.40;99.90;;;;;;5025944;28;20038;-83
2021/01/05 11:14:40;;;;;;;10.60;5.95;;;22.40;99.90;;;;;;5030753;28;20068;-82
2021/01/05 11:17:08;;;;;;;10.52;5.80;;;22.40;99.90;;;;;;5021795;28;20144;-82
2021/01/05 11:19:40;;;;;;;11.57;5.70;;;22.30;99.90;;;;;;5066855;22;20054;-82
2021/01/05 11:22:13;;;;;;;11.40;5.32;;;22.30;99.90;;;;;;5064492;22;20055;-81
2021/01/05 11:24:41;;;;;;;13.95;5.43;;;22.30;99.90;;;;;;5045728;28;20541;-82
2021/01/05 11:27:09;;;;;;;15.25;5.55;;;22.40;99.90;;;;;;5053452;22;20541;-83
2021/01/05 11:29:37;;;;;;;18.48;5.75;;;22.30;99.90;;;;;;5037210;28;20072;-83
2021/01/05 11:32:10;;;;;;;15.73;6.68;;;22.30;99.90;;;;;;5049136;28;20033;-83
2021/01/05 11:34:39;;;;;;;14.70;6.00;;;22.30;99.90;;;;;;5052869;22;20021;-81
2021/01/05 11:37:10;;;;;;;10.25;5.00;;;22.20;99.90;;;;;;5028221;28;20087;-82
2021/01/05 11:39:42;;;;;;;16.48;7.05;;;22.20;99.90;;;;;;5028842;28;20027;-83
2021/01/05 11:42:11;;;;;;;12.98;6.20;;;22.20;99.90;;;;;;5029804;28;20041;-82
2021/01/05 11:44:39;;;;;;;26.38;7.43;;;22.10;99.90;;;;;;5031153;28;20026;-83
2021/01/05 11:47:07;;;;;;;16.63;6.65;;;22.00;99.90;;;;;;5028975;28;20484;-82
2021/01/05 11:49:34;;;;;;;21.52;7.03;;;22.00;99.90;;;;;;5030580;28;20108;-84
2021/01/05 11:52:01;;;;;;;22.27;6.90;;;22.00;99.90;;;;;;5042017;22;20055;-84
2021/01/05 11:54:29;;;;;;;20.20;6.68;;;22.00;99.90;;;;;;5065298;28;20095;-83
2021/01/05 11:56:57;;;;;;;19.20;6.25;;;21.90;99.90;;;;;;5060184;28;20025;-83
2021/01/05 11:59:25;;;;;;;21.08;6.90;;;21.90;99.90;;;;;;5057362;28;20035;-81
2021/01/05 12:01:53;;;;;;;21.92;6.32;;;21.90;99.90;;;;;;5042028;28;20025;-84
2021/01/05 12:04:21;;;;;;;26.30;7.20;;;21.90;99.90;;;;;;5067807;28;20064;-82
2021/01/05 12:06:52;;;;;;;17.25;6.05;;;21.90;99.90;;;;;;5043185;28;20079;-84
2021/01/05 12:09:22;;;;;;;16.05;5.97;;;21.90;99.90;;;;;;5046503;28;20033;-83
2021/01/05 12:11:54;;;;;;;14.30;5.78;;;22.00;99.90;;;;;;5049836;28;20053;-82
2021/01/05 12:14:22;;;;;;;15.07;7.30;;;21.90;99.90;;;;;;5033461;28;20025;-84
2021/01/05 12:16:50;;;;;;;11.07;5.35;;;21.90;99.90;;;;;;5046955;28;20025;-83
2021/01/05 12:19:24;;;;;;;18.25;5.63;;;21.90;99.90;;;;;;5051133;28;20135;-83
2021/01/05 12:21:56;;;;;;;16.90;3.75;;;21.80;99.90;;;;;;5053962;28;20059;-83
2021/01/05 12:24:26;;;;;;;11.52;4.22;;;21.70;99.90;;;;;;5077108;22;20032;-84
2021/01/05 12:26:57;;;;;;;12.88;3.03;;;21.60;99.90;;;;;;5050104;28;20537;-82
2021/01/05 12:29:38;;;;;;;18.38;3.95;;;21.40;99.90;;;;;;5050753;28;20025;-83
2021/01/05 12:32:16;;;;;;;15.73;2.72;;;21.30;99.90;;;;;;5035637;28;20044;-82
2021/01/05 12:34:50;;;;;;;14.82;3.65;;;21.20;99.90;;;;;;5023805;28;20117;-83
2021/01/05 12:37:21;;;;;;;11.80;3.45;;;21.20;99.90;;;;;;5033601;28;20056;-80
2021/01/05 12:39:49;;;;;;;17.95;4.35;;;21.10;99.90;;;;;;5030719;28;20064;-83
2021/01/05 12:42:24;;;;;;;14.40;3.05;;;21.10;99.90;;;;;;5034072;28;20021;-85
2021/01/05 12:44:54;;;;;;;14.77;3.75;;;21.10;99.90;;;;;;5044419;28;20116;-83
2021/01/05 12:47:22;;;;;;;14.23;2.88;;;21.10;99.90;;;;;;5034162;28;20124;-86
2021/01/05 12:49:50;;;;;;;15.73;3.55;;;21.10;99.90;;;;;;5027279;28;20021;-84
2021/01/05 12:52:18;;;;;;;18.48;3.80;;;21.20;99.90;;;;;;5022850;28;20061;-83
2021/01/05 12:54:46;;;;;;;11.63;2.38;;;21.30;99.90;;;;;;5031938;28;20033;-84
2021/01/05 12:57:16;;;;;;;8.82;2.58;;;21.30;99.90;;;;;;5041240;28;20052;-83
2021/01/05 12:59:48;;;;;;;10.80;2.13;;;21.30;99.90;;;;;;5028071;28;20091;-83
2021/01/05 13:02:23;;;;;;;12.05;2.47;;;21.30;99.90;;;;;;5036819;28;20128;-83
2021/01/05 13:04:50;;;;;;;11.07;2.40;;;21.40;99.90;;;;;;5030906;28;20491;-83
2021/01/05 13:07:19;;;;;;;6.20;1.85;;;21.40;99.90;;;;;;5038370;28;20032;-82
2021/01/05 13:09:46;;;;;;;7.25;1.70;;;21.50;99.90;;;;;;5030354;28;20030;-83
2021/01/05 13:12:13;;;;;;;13.70;2.92;;;21.40;99.90;;;;;;5034880;28;20474;-82